createdAt,value
2019-04-26T00:00:27.965Z,32.93
2019-04-26T00:01:03.028Z,26.93
2019-04-26T00:01:38.090Z,32.42
2019-04-26T00:02:22.522Z,31.15
2019-04-26T00:02:57.587Z,42.45
2019-04-26T00:03:38.673Z,33.60
2019-04-26T00:04:14.078Z,31.12
2019-04-26T00:04:48.231Z,32.93
2019-04-26T00:05:33.706Z,31.10
2019-04-26T00:05:56.765Z,34.95
2019-04-26T00:06:30.187Z,35.15
2019-04-26T00:07:03.609Z,34.65
2019-04-26T00:07:37.540Z,33.00
2019-04-26T00:08:11.811Z,32.25
2019-04-26T00:08:47.222Z,27.40
2019-04-26T00:09:29.000Z,32.42
2019-04-26T00:10:04.069Z,32.93
2019-04-26T00:10:45.246Z,32.45
2019-04-26T00:11:23.288Z,30.95
2019-04-26T00:12:01.157Z,29.15
2019-04-26T00:12:41.815Z,30.75
2019-04-26T00:14:07.056Z,36.10
2019-04-26T00:15:25.457Z,32.03
2019-04-26T00:16:06.940Z,34.23
2019-04-26T00:16:53.806Z,29.82
2019-04-26T00:17:29.470Z,30.43
2019-04-26T00:18:04.968Z,31.45
2019-04-26T00:18:39.540Z,35.20
2019-04-26T00:19:13.785Z,29.57
2019-04-26T00:19:47.543Z,29.75
2019-04-26T00:20:21.372Z,30.90
2019-04-26T00:20:54.795Z,28.45
2019-04-26T00:21:28.236Z,30.77
2019-04-26T00:22:02.182Z,34.30
2019-04-26T00:22:35.975Z,29.67
2019-04-26T00:23:10.632Z,32.63
2019-04-26T00:23:44.119Z,36.13
2019-04-26T00:24:18.018Z,28.70
2019-04-26T00:24:51.440Z,34.80
2019-04-26T00:25:24.863Z,35.15
2019-04-26T00:25:58.297Z,28.92
2019-04-26T00:26:31.717Z,33.10
2019-04-26T00:27:05.238Z,32.48
2019-04-26T00:27:38.673Z,32.58
2019-04-26T00:28:12.832Z,31.37
2019-04-26T00:28:46.430Z,38.92
2019-04-26T00:29:19.843Z,34.40
2019-04-26T00:29:53.267Z,40.03
2019-04-26T00:30:26.694Z,38.35
2019-04-26T00:31:00.169Z,33.35
2019-04-26T00:31:33.578Z,36.03
2019-04-26T00:32:07.005Z,34.20
2019-04-26T00:32:40.452Z,31.35
2019-04-26T00:33:13.899Z,34.90
2019-04-26T00:33:47.320Z,33.38
2019-04-26T00:34:21.650Z,34.73
2019-04-26T00:34:55.363Z,35.30
2019-04-26T00:35:28.783Z,30.92
2019-04-26T00:36:02.272Z,35.28
2019-04-26T00:36:35.698Z,31.20
2019-04-26T00:37:09.114Z,27.73
2019-04-26T00:37:42.531Z,38.88
2019-04-26T00:38:16.133Z,36.68
2019-04-26T00:38:49.725Z,34.83
2019-04-26T00:39:24.914Z,36.48
2019-04-26T00:39:58.223Z,32.85
2019-04-26T00:40:31.643Z,32.48
2019-04-26T00:41:05.064Z,28.05
2019-04-26T00:41:38.662Z,36.63
2019-04-26T00:42:13.138Z,37.98
2019-04-26T00:42:47.216Z,36.30
2019-04-26T00:43:20.643Z,34.00
2019-04-26T00:43:54.098Z,32.80
2019-04-26T00:44:27.539Z,38.80
2019-04-26T00:45:00.983Z,32.83
2019-04-26T00:45:34.404Z,34.63
2019-04-26T00:46:07.831Z,35.03
2019-04-26T00:46:41.261Z,30.77
2019-04-26T00:47:15.238Z,35.28
2019-04-26T00:47:48.901Z,33.50
2019-04-26T00:48:23.227Z,32.85
2019-04-26T00:48:57.119Z,28.23
2019-04-26T00:49:42.742Z,35.52
2019-04-26T00:50:07.572Z,32.23
2019-04-26T00:50:40.993Z,39.67
2019-04-26T00:51:15.263Z,32.48
2019-04-26T00:51:48.905Z,31.17
2019-04-26T00:52:22.332Z,29.37
2019-04-26T00:52:55.836Z,34.85
2019-04-26T00:53:29.344Z,50.73
2019-04-26T00:54:02.765Z,34.23
2019-04-26T00:54:36.194Z,36.80
2019-04-26T00:55:09.627Z,35.95
2019-04-26T00:55:43.069Z,35.92
2019-04-26T00:56:16.490Z,35.28
2019-04-26T00:56:50.385Z,36.63
2019-04-26T00:57:24.418Z,36.88
2019-04-26T00:57:58.055Z,31.93
2019-04-26T00:58:33.546Z,36.40
2019-04-26T00:59:07.196Z,32.40
2019-04-26T00:59:40.608Z,34.67
2019-04-26T01:00:16.885Z,36.68
2019-04-26T01:00:50.760Z,36.80
2019-04-26T01:01:25.183Z,32.10
2019-04-26T01:02:00.243Z,36.70
2019-04-26T01:02:44.082Z,32.38
2019-04-26T01:03:18.536Z,39.18
2019-04-26T01:03:52.020Z,36.88
2019-04-26T01:04:25.441Z,35.68
2019-04-26T01:04:58.864Z,42.75
2019-04-26T01:05:33.926Z,37.23
2019-04-26T01:06:09.008Z,33.63
2019-04-26T01:06:44.089Z,38.00
2019-04-26T01:07:17.516Z,36.58
2019-04-26T01:07:52.580Z,32.03
2019-04-26T01:08:26.000Z,35.68
2019-04-26T01:08:59.419Z,39.73
2019-04-26T01:09:32.842Z,38.70
2019-04-26T01:10:06.264Z,33.85
2019-04-26T01:10:39.690Z,41.88
2019-04-26T01:11:13.104Z,41.25
2019-04-26T01:11:46.549Z,39.92
2019-04-26T01:12:19.987Z,35.65
2019-04-26T01:12:53.403Z,32.25
2019-04-26T01:13:26.819Z,32.63
2019-04-26T01:14:00.235Z,40.00
2019-04-26T01:14:33.666Z,31.45
2019-04-26T01:15:07.156Z,36.73
2019-04-26T01:15:40.568Z,29.72
2019-04-26T01:16:14.005Z,33.02
2019-04-26T01:16:47.419Z,42.38
2019-04-26T01:17:20.864Z,32.48
2019-04-26T01:17:54.304Z,34.20
2019-04-26T01:18:27.742Z,34.45
2019-04-26T01:19:01.140Z,34.48
2019-04-26T01:19:34.559Z,30.45
2019-04-26T01:20:07.997Z,34.13
2019-04-26T01:20:41.416Z,39.73
2019-04-26T01:21:17.204Z,32.10
2019-04-26T01:21:52.991Z,40.98
2019-04-26T01:22:29.825Z,37.90
2019-04-26T01:23:04.819Z,36.70
2019-04-26T01:23:38.265Z,34.40
2019-04-26T01:24:11.688Z,36.98
2019-04-26T01:24:45.095Z,34.58
2019-04-26T01:25:30.701Z,33.50
2019-04-26T01:26:17.719Z,35.83
2019-04-26T01:26:51.290Z,29.95
2019-04-26T01:27:25.491Z,36.40
2019-04-26T01:27:59.204Z,41.90
2019-04-26T01:28:38.987Z,35.60
2019-04-26T01:29:12.426Z,41.13
2019-04-26T01:29:45.852Z,38.73
2019-04-26T01:30:19.651Z,40.70
2019-04-26T01:30:53.461Z,38.88
2019-04-26T01:31:28.136Z,42.90
2019-04-26T01:32:05.250Z,33.60
2019-04-26T01:32:38.672Z,36.63
2019-04-26T01:33:12.093Z,36.63
2019-04-26T01:33:45.511Z,37.67
2019-04-26T01:34:19.256Z,42.35
2019-04-26T01:34:54.004Z,35.55
2019-04-26T01:35:28.352Z,40.10
2019-04-26T01:36:12.388Z,35.58
2019-04-26T01:36:36.903Z,36.17
2019-04-26T01:37:10.803Z,40.65
2019-04-26T01:37:44.219Z,34.58
2019-04-26T01:38:17.636Z,39.70
2019-04-26T01:38:51.621Z,32.50
2019-04-26T01:39:25.803Z,35.33
2019-04-26T01:40:03.956Z,40.80
2019-04-26T01:40:37.770Z,33.80
2019-04-26T01:41:12.829Z,33.75
2019-04-26T01:41:48.360Z,31.90
2019-04-26T01:42:24.262Z,31.65
2019-04-26T01:43:11.623Z,33.75
2019-04-26T01:43:49.355Z,33.18
2019-04-26T01:44:42.840Z,32.30
2019-04-26T01:45:21.765Z,36.85
2019-04-26T01:46:06.189Z,38.05
2019-04-26T01:46:41.250Z,31.45
2019-04-26T01:47:14.738Z,36.42
2019-04-26T01:47:48.234Z,36.58
2019-04-26T01:48:42.573Z,34.85
2019-04-26T01:49:15.987Z,35.85
2019-04-26T01:49:49.413Z,33.35
2019-04-26T01:50:23.582Z,38.42
2019-04-26T01:50:57.357Z,30.97
2019-04-26T01:51:34.053Z,31.60
2019-04-26T01:52:10.730Z,33.13
2019-04-26T01:52:44.152Z,35.48
2019-04-26T01:53:17.567Z,35.98
2019-04-26T01:53:51.795Z,36.60
2019-04-26T01:54:28.556Z,34.83
2019-04-26T01:55:01.991Z,39.05
2019-04-26T01:55:35.395Z,32.15
2019-04-26T01:56:08.841Z,33.00
2019-04-26T01:56:42.278Z,35.38
2019-04-26T01:57:15.707Z,36.05
2019-04-26T01:57:49.122Z,42.80
2019-04-26T01:58:23.264Z,37.00
2019-04-26T01:58:56.872Z,41.42
2019-04-26T01:59:31.477Z,37.08
2019-04-26T02:00:14.888Z,34.75
2019-04-26T02:00:52.822Z,31.77
2019-04-26T02:01:44.409Z,34.60
2019-04-26T02:02:19.499Z,32.65
2019-04-26T02:02:54.555Z,31.65
2019-04-26T02:03:30.575Z,40.25
2019-04-26T02:04:03.991Z,32.15
2019-04-26T02:04:42.015Z,36.65
2019-04-26T02:05:19.890Z,41.58
2019-04-26T02:05:53.379Z,34.98
2019-04-26T02:06:31.220Z,39.25
2019-04-26T02:07:01.880Z,34.40
2019-04-26T02:07:38.408Z,32.05
2019-04-26T02:08:11.831Z,30.72
2019-04-26T02:08:45.269Z,38.50
2019-04-26T02:09:19.147Z,35.35
2019-04-26T02:09:52.571Z,33.28
2019-04-26T02:10:28.564Z,34.33
2019-04-26T02:11:02.182Z,34.33
2019-04-26T02:11:35.600Z,39.13
2019-04-26T02:12:09.071Z,39.65
2019-04-26T02:12:44.398Z,36.77
2019-04-26T02:13:17.843Z,28.47
2019-04-26T02:13:51.258Z,36.42
2019-04-26T02:14:25.283Z,41.63
2019-04-26T02:14:58.701Z,39.23
2019-04-26T02:15:33.498Z,35.92
2019-04-26T02:16:07.184Z,35.30
2019-04-26T02:16:40.605Z,31.37
2019-04-26T02:17:14.031Z,34.43
2019-04-26T02:17:48.491Z,36.33
2019-04-26T02:18:23.865Z,35.00
2019-04-26T02:18:57.017Z,34.60
2019-04-26T02:19:31.593Z,32.20
2019-04-26T02:20:07.001Z,37.35
2019-04-26T02:20:53.555Z,43.38
2019-04-26T02:21:29.787Z,31.23
2019-04-26T02:22:05.367Z,37.53
2019-04-26T02:22:43.190Z,30.97
2019-04-26T02:23:18.258Z,29.10
2019-04-26T02:23:53.336Z,33.38
2019-04-26T02:24:28.896Z,37.88
2019-04-26T02:25:02.509Z,39.20
2019-04-26T02:25:35.927Z,32.58
2019-04-26T02:26:28.288Z,36.25
2019-04-26T02:27:03.473Z,42.93
2019-04-26T02:27:36.919Z,43.95
2019-04-26T02:28:10.320Z,38.33
2019-04-26T02:28:43.754Z,36.20
2019-04-26T02:29:27.040Z,38.02
2019-04-26T02:30:00.767Z,40.25
2019-04-26T02:30:35.215Z,38.40
2019-04-26T02:31:09.277Z,42.15
2019-04-26T02:31:43.237Z,43.48
2019-04-26T02:32:16.655Z,44.10
2019-04-26T02:32:50.074Z,37.88
2019-04-26T02:33:23.509Z,42.70
2019-04-26T02:33:56.918Z,36.77
2019-04-26T02:34:31.758Z,38.17
2019-04-26T02:35:06.612Z,38.35
2019-04-26T02:35:40.032Z,36.00
2019-04-26T02:36:13.453Z,32.73
2019-04-26T02:36:57.922Z,40.08
2019-04-26T02:37:21.958Z,35.88
2019-04-26T02:37:55.375Z,43.05
2019-04-26T02:38:30.701Z,42.08
2019-04-26T02:39:06.955Z,42.43
2019-04-26T02:39:40.914Z,42.20
2019-04-26T02:40:14.974Z,46.48
2019-04-26T02:40:49.065Z,35.90
2019-04-26T02:41:22.569Z,35.88
2019-04-26T02:41:59.489Z,36.55
2019-04-26T02:42:37.745Z,36.25
2019-04-26T02:43:11.249Z,36.90
2019-04-26T02:43:44.659Z,38.67
2019-04-26T02:44:21.787Z,39.67
2019-04-26T02:45:22.641Z,39.88
2019-04-26T02:46:00.453Z,35.00
2019-04-26T02:46:47.151Z,36.33
2019-04-26T02:47:38.548Z,33.88
2019-04-26T02:48:18.707Z,38.30
2019-04-26T02:48:59.926Z,32.55
2019-04-26T02:49:36.634Z,39.90
2019-04-26T02:50:22.270Z,30.70
2019-04-26T02:51:01.852Z,33.75
2019-04-26T02:51:53.713Z,37.35
2019-04-26T02:52:39.296Z,29.65
2019-04-26T02:53:35.360Z,36.77
2019-04-26T02:54:18.579Z,30.95
2019-04-26T02:54:57.857Z,33.45
2019-04-26T02:56:04.558Z,40.03
2019-04-26T02:56:40.474Z,38.92
2019-04-26T02:57:30.995Z,33.28
2019-04-26T02:58:04.549Z,33.53
2019-04-26T02:58:50.208Z,33.65
2019-04-26T02:59:36.791Z,32.35
2019-04-26T03:00:14.833Z,35.48
2019-04-26T03:00:48.320Z,37.78
2019-04-26T03:01:21.757Z,38.25
2019-04-26T03:01:55.168Z,45.43
2019-04-26T03:02:32.271Z,37.23
2019-04-26T03:03:05.780Z,36.10
2019-04-26T03:03:39.753Z,33.80
2019-04-26T03:04:13.453Z,39.95
2019-04-26T03:04:46.879Z,45.67
2019-04-26T03:05:20.304Z,37.00
2019-04-26T03:05:53.723Z,39.03
2019-04-26T03:06:30.043Z,35.48
2019-04-26T03:07:05.544Z,41.73
2019-04-26T03:07:44.855Z,47.15
2019-04-26T03:08:19.443Z,36.48
2019-04-26T03:08:53.148Z,33.10
2019-04-26T03:09:27.013Z,33.73
2019-04-26T03:10:00.434Z,40.55
2019-04-26T03:10:36.845Z,36.48
2019-04-26T03:11:17.256Z,37.83
2019-04-26T03:12:07.665Z,35.33
2019-04-26T03:12:43.009Z,34.15
2019-04-26T03:13:19.034Z,34.33
2019-04-26T03:13:57.086Z,36.30
2019-04-26T03:14:32.986Z,34.30
2019-04-26T03:15:14.071Z,41.15
2019-04-26T03:15:51.723Z,39.80
2019-04-26T03:16:35.168Z,39.50
2019-04-26T03:17:26.284Z,36.13
2019-04-26T03:18:19.399Z,37.88
2019-04-26T03:19:03.352Z,43.23
2019-04-26T03:19:47.614Z,37.88
2019-04-26T03:20:24.565Z,32.90
2019-04-26T03:21:10.099Z,44.90
2019-04-26T03:21:55.708Z,43.08
2019-04-26T03:22:50.073Z,35.83
2019-04-26T03:23:53.279Z,41.58
2019-04-26T03:24:38.629Z,41.95
2019-04-26T03:25:27.105Z,38.13
2019-04-26T03:26:09.288Z,45.43
2019-04-26T03:26:54.494Z,38.92
2019-04-26T03:27:43.033Z,41.55
2019-04-26T03:28:41.625Z,40.20
2019-04-26T03:29:32.904Z,26.90
2019-04-26T03:30:26.406Z,37.70
2019-04-26T03:31:12.017Z,33.67
2019-04-26T03:31:54.242Z,36.48
2019-04-26T03:32:40.828Z,37.75
2019-04-26T03:33:29.879Z,38.23
2019-04-26T03:34:38.511Z,30.23
2019-04-26T03:35:27.983Z,41.08
2019-04-26T03:36:09.158Z,36.50
2019-04-26T03:37:20.707Z,40.03
2019-04-26T03:37:55.538Z,42.35
2019-04-26T03:38:43.573Z,41.73
2019-04-26T03:39:36.113Z,34.05
2019-04-26T03:40:32.574Z,36.00
2019-04-26T03:41:29.272Z,44.03
2019-04-26T03:42:16.663Z,36.00
2019-04-26T03:43:05.293Z,39.58
2019-04-26T03:43:44.688Z,36.03
2019-04-26T03:44:38.860Z,38.35
2019-04-26T03:45:40.352Z,39.35
2019-04-26T03:46:33.573Z,38.75
2019-04-26T03:47:08.613Z,30.35
2019-04-26T03:47:48.127Z,38.53
2019-04-26T03:48:37.934Z,36.20
2019-04-26T03:49:23.625Z,42.78
2019-04-26T03:50:03.293Z,40.60
2019-04-26T03:50:49.058Z,41.40
2019-04-26T03:52:00.481Z,42.60
2019-04-26T03:52:58.270Z,38.08
2019-04-26T03:53:39.750Z,38.63
2019-04-26T03:54:19.725Z,40.35
2019-04-26T03:55:02.261Z,38.10
2019-04-26T03:55:43.263Z,42.13
2019-04-26T03:56:29.130Z,38.17
2019-04-26T03:57:07.443Z,39.45
2019-04-26T03:57:46.169Z,42.75
2019-04-26T03:58:51.693Z,50.40
2019-04-26T03:59:44.256Z,41.30
2019-04-26T04:00:25.989Z,44.85
2019-04-26T04:01:12.930Z,43.98
2019-04-26T04:02:06.321Z,38.35
2019-04-26T04:02:47.461Z,39.53
2019-04-26T04:03:28.713Z,44.58
2019-04-26T04:04:03.795Z,48.68
2019-04-26T04:04:43.263Z,40.48
2019-04-26T04:05:24.216Z,41.05
2019-04-26T04:05:58.905Z,49.23
2019-04-26T04:06:48.927Z,43.90
2019-04-26T04:07:09.499Z,39.23
2019-04-26T04:07:48.082Z,40.00
2019-04-26T04:08:20.766Z,46.45
2019-04-26T04:09:09.009Z,45.75
2019-04-26T04:09:46.786Z,41.40
2019-04-26T04:10:47.809Z,45.43
2019-04-26T04:11:27.323Z,44.10
2019-04-26T04:12:11.639Z,39.10
2019-04-26T04:12:51.036Z,43.40
2019-04-26T04:13:42.954Z,42.75
2019-04-26T04:14:33.240Z,34.25
2019-04-26T04:15:15.903Z,35.13
2019-04-26T04:15:51.079Z,35.70
2019-04-26T04:16:28.023Z,43.23
2019-04-26T04:17:06.190Z,41.50
2019-04-26T04:17:51.565Z,40.67
2019-04-26T04:18:25.317Z,39.08
2019-04-26T04:19:10.817Z,43.63
2019-04-26T04:20:07.172Z,36.88
2019-04-26T04:21:10.861Z,43.52
2019-04-26T04:21:57.384Z,38.35
2019-04-26T04:22:43.941Z,40.05
2019-04-26T04:23:26.933Z,46.95
2019-04-26T04:24:07.841Z,48.98
2019-04-26T04:25:32.046Z,37.80
2019-04-26T04:26:05.460Z,37.90
2019-04-26T04:27:02.776Z,46.35
2019-04-26T04:27:45.941Z,42.08
2019-04-26T04:28:54.863Z,41.05
2019-04-26T04:29:47.183Z,35.33
2019-04-26T04:30:38.656Z,44.15
2019-04-26T04:31:40.498Z,45.43
2019-04-26T04:32:35.647Z,44.30
2019-04-26T04:33:30.830Z,41.65
2019-04-26T04:34:06.943Z,40.08
2019-04-26T04:34:45.589Z,41.68
2019-04-26T04:35:20.674Z,41.33
2019-04-26T04:35:56.993Z,43.92
2019-04-26T04:36:33.676Z,45.08
2019-04-26T04:37:07.091Z,49.58
2019-04-26T04:38:05.940Z,42.73
2019-04-26T04:38:40.855Z,41.10
2019-04-26T04:39:23.562Z,46.83
2019-04-26T04:40:07.377Z,39.95
2019-04-26T04:41:12.839Z,38.23
2019-04-26T04:42:06.073Z,40.03
2019-04-26T04:42:45.748Z,43.13
2019-04-26T04:43:27.219Z,45.60
2019-04-26T04:44:39.122Z,38.30
2019-04-26T04:45:42.536Z,39.25
2019-04-26T04:46:33.497Z,39.05
2019-04-26T04:47:24.508Z,32.35
2019-04-26T04:48:19.160Z,38.05
2019-04-26T04:49:09.370Z,38.73
2019-04-26T04:50:01.756Z,39.33
2019-04-26T04:50:40.958Z,36.38
2019-04-26T04:51:36.228Z,33.88
2019-04-26T04:52:26.817Z,34.92
2019-04-26T04:53:15.275Z,36.63
2019-04-26T04:54:11.538Z,38.13
2019-04-26T04:55:07.785Z,37.53
2019-04-26T04:55:50.155Z,32.30
2019-04-26T04:56:45.713Z,40.65
2019-04-26T04:57:37.355Z,38.95
2019-04-26T04:58:18.692Z,42.83
2019-04-26T04:58:56.869Z,29.20
2019-04-26T05:00:09.815Z,35.85
2019-04-26T05:00:53.677Z,30.65
2019-04-26T05:01:50.371Z,31.37
2019-04-26T05:02:43.929Z,43.23
2019-04-26T05:03:31.466Z,32.45
2019-04-26T05:04:09.781Z,31.12
2019-04-26T05:05:15.030Z,35.30
2019-04-26T05:06:06.654Z,30.77
2019-04-26T05:06:45.035Z,37.55
2019-04-26T05:07:38.155Z,36.03
2019-04-26T05:08:17.658Z,33.88
2019-04-26T05:09:06.912Z,33.20
2019-04-26T05:10:03.269Z,31.95
2019-04-26T05:10:39.946Z,30.48
2019-04-26T05:11:25.434Z,27.52
2019-04-26T05:12:04.573Z,31.20
2019-04-26T05:12:50.002Z,31.02
2019-04-26T05:13:26.828Z,32.15
2019-04-26T05:14:32.064Z,34.10
2019-04-26T05:15:10.394Z,31.62
2019-04-26T05:16:09.091Z,34.98
2019-04-26T05:17:00.029Z,31.30
2019-04-26T05:17:49.534Z,32.78
2019-04-26T05:18:32.458Z,40.25
2019-04-26T05:19:27.935Z,35.43
2019-04-26T05:20:13.211Z,36.15
2019-04-26T05:20:49.892Z,33.90
2019-04-26T05:21:29.197Z,31.20
2019-04-26T05:22:30.277Z,35.05
2019-04-26T05:23:23.269Z,32.48
2019-04-26T05:24:18.384Z,29.92
2019-04-26T05:25:14.884Z,38.63
2019-04-26T05:26:15.553Z,38.73
2019-04-26T05:27:12.640Z,38.15
2019-04-26T05:27:59.585Z,32.93
2019-04-26T05:28:47.513Z,27.90
2019-04-26T05:29:29.053Z,39.18
2019-04-26T05:30:29.489Z,29.30
2019-04-26T05:31:32.943Z,38.58
2019-04-26T05:32:25.121Z,27.42
2019-04-26T05:33:16.931Z,26.52
2019-04-26T05:34:10.535Z,31.17
2019-04-26T05:35:00.563Z,36.77
2019-04-26T05:35:55.272Z,37.65
2019-04-26T05:36:31.950Z,36.08
2019-04-26T05:37:20.180Z,31.60
2019-04-26T05:38:18.358Z,34.53
2019-04-26T05:38:53.252Z,31.57
2019-04-26T05:39:36.263Z,28.70
2019-04-26T05:40:47.037Z,32.98
2019-04-26T05:41:42.489Z,31.95
2019-04-26T05:42:37.353Z,38.55
2019-04-26T05:43:35.855Z,30.88
2019-04-26T05:44:30.715Z,37.35
2019-04-26T05:45:18.107Z,27.85
2019-04-26T05:46:05.032Z,40.35
2019-04-26T05:46:59.566Z,31.95
2019-04-26T05:48:03.137Z,37.73
2019-04-26T05:48:59.789Z,27.45
2019-04-26T05:49:54.132Z,44.98
2019-04-26T05:51:08.204Z,30.77
2019-04-26T05:52:25.289Z,29.32
2019-04-26T05:53:12.571Z,28.10
2019-04-26T05:54:13.468Z,37.80
2019-04-26T05:55:00.197Z,35.90
2019-04-26T05:55:56.044Z,30.75
2019-04-26T05:56:58.408Z,29.42
2019-04-26T05:57:52.574Z,39.45
2019-04-26T05:58:43.814Z,24.23
2019-04-26T05:59:29.202Z,33.42
2019-04-26T06:00:24.617Z,29.10
2019-04-26T06:01:28.128Z,32.25
2019-04-26T06:02:06.427Z,30.62
2019-04-26T06:02:59.188Z,30.45
2019-04-26T06:03:49.642Z,29.45
2019-04-26T06:04:34.594Z,27.00
2019-04-26T06:05:20.877Z,26.97
2019-04-26T06:06:05.456Z,34.80
2019-04-26T06:06:46.649Z,35.68
2019-04-26T06:07:36.647Z,30.62
2019-04-26T06:08:37.261Z,34.18
2019-04-26T06:09:17.330Z,27.10
2019-04-26T06:10:13.433Z,29.32
2019-04-26T06:10:52.722Z,30.57
2019-04-26T06:11:33.932Z,22.80
2019-04-26T06:12:37.092Z,30.45
2019-04-26T06:13:20.665Z,26.68
2019-04-26T06:14:46.260Z,31.62
2019-04-26T06:16:11.457Z,32.28
2019-04-26T06:17:05.758Z,25.52
2019-04-26T06:18:01.843Z,39.42
2019-04-26T06:19:08.226Z,28.40
2019-04-26T06:20:02.548Z,34.67
2019-04-26T06:20:45.145Z,30.43
2019-04-26T06:21:43.887Z,32.38
2019-04-26T06:22:41.363Z,30.75
2019-04-26T06:23:26.829Z,27.45
2019-04-26T06:24:21.216Z,26.65
2019-04-26T06:25:08.106Z,39.18
2019-04-26T06:25:54.852Z,26.17
2019-04-26T06:26:54.267Z,22.40
2019-04-26T06:27:50.573Z,20.55
2019-04-26T06:28:43.615Z,24.10
2019-04-26T06:29:32.821Z,26.85
2019-04-26T06:30:12.700Z,19.20
2019-04-26T06:30:59.314Z,22.98
2019-04-26T06:31:51.042Z,26.55
2019-04-26T06:32:30.397Z,26.95
2019-04-26T06:33:10.381Z,26.68
2019-04-26T06:33:49.782Z,28.52
2019-04-26T06:34:59.420Z,23.47
2019-04-26T06:35:34.932Z,23.35
2019-04-26T06:36:10.021Z,33.30
2019-04-26T06:36:48.321Z,31.52
2019-04-26T06:37:26.641Z,24.35
2019-04-26T06:38:19.455Z,29.98
2019-04-26T06:39:17.322Z,27.73
2019-04-26T06:40:02.687Z,24.30
2019-04-26T06:40:55.957Z,27.52
2019-04-26T06:42:05.581Z,30.48
2019-04-26T06:42:50.945Z,22.85
2019-04-26T06:43:26.650Z,23.65
2019-04-26T06:44:16.281Z,31.77
2019-04-26T06:45:28.171Z,22.45
2019-04-26T06:46:47.407Z,21.37
2019-04-26T06:47:30.560Z,25.32
2019-04-26T06:48:25.813Z,22.42
2019-04-26T06:49:19.758Z,23.12
2019-04-26T06:50:12.084Z,24.25
2019-04-26T06:50:54.241Z,19.67
2019-04-26T06:51:33.853Z,27.22
2019-04-26T06:52:12.697Z,26.95
2019-04-26T06:52:58.140Z,25.97
2019-04-26T06:54:03.512Z,23.32
2019-04-26T06:54:48.847Z,34.08
2019-04-26T06:55:23.927Z,29.23
2019-04-26T06:56:13.025Z,29.20
2019-04-26T06:57:11.565Z,33.70
2019-04-26T06:58:07.234Z,26.25
2019-04-26T06:59:17.295Z,27.07
2019-04-26T07:00:10.368Z,27.62
2019-04-26T07:00:50.398Z,31.45
2019-04-26T07:01:38.314Z,32.87
2019-04-26T07:02:23.770Z,30.23
2019-04-26T07:03:21.460Z,35.45
2019-04-26T07:04:18.172Z,25.20
2019-04-26T07:05:21.581Z,32.70
2019-04-26T07:06:02.511Z,34.75
2019-04-26T07:07:30.030Z,35.65
2019-04-26T07:08:23.091Z,30.30
2019-04-26T07:09:11.537Z,30.57
2019-04-26T07:10:00.291Z,27.35
2019-04-26T07:10:48.769Z,40.95
2019-04-26T07:11:53.878Z,31.93
2019-04-26T07:12:49.568Z,26.97
2019-04-26T07:13:52.940Z,31.97
2019-04-26T07:14:45.884Z,28.00
2019-04-26T07:15:28.668Z,41.40
2019-04-26T07:16:30.096Z,29.48
2019-04-26T07:17:09.539Z,37.28
2019-04-26T07:18:10.800Z,35.05
2019-04-26T07:19:05.606Z,25.02
2019-04-26T07:20:03.263Z,38.35
2019-04-26T07:20:56.795Z,35.68
2019-04-26T07:22:10.891Z,36.03
2019-04-26T07:23:14.250Z,27.82
2019-04-26T07:24:14.995Z,22.50
2019-04-26T07:24:56.258Z,24.52
2019-04-26T07:25:51.040Z,24.30
2019-04-26T07:26:36.670Z,34.35
2019-04-26T07:27:13.349Z,20.12
2019-04-26T07:28:03.222Z,20.77
2019-04-26T07:28:49.617Z,27.98
2019-04-26T07:30:01.600Z,26.87
2019-04-26T07:30:52.349Z,26.02
2019-04-26T07:31:46.168Z,20.37
2019-04-26T07:32:45.456Z,25.10
2019-04-26T07:33:48.516Z,34.23
2019-04-26T07:34:41.917Z,24.07
2019-04-26T07:35:27.153Z,26.07
2019-04-26T07:36:09.723Z,23.12
2019-04-26T07:37:15.096Z,21.10
2019-04-26T07:38:06.889Z,24.02
2019-04-26T07:39:15.703Z,25.08
2019-04-26T07:40:07.803Z,24.23
2019-04-26T07:41:09.367Z,20.00
2019-04-26T07:42:16.004Z,24.52
2019-04-26T07:43:26.506Z,22.15
2019-04-26T07:44:16.623Z,26.12
2019-04-26T07:45:25.125Z,19.98
2019-04-26T07:46:26.349Z,21.87
2019-04-26T07:47:17.692Z,26.45
2019-04-26T07:49:10.714Z,17.50
2019-04-26T07:50:18.732Z,21.20
2019-04-26T07:51:10.008Z,28.05
2019-04-26T07:52:18.137Z,19.98
2019-04-26T07:52:54.807Z,27.07
2019-04-26T07:53:31.492Z,20.05
2019-04-26T07:54:24.528Z,17.92
2019-04-26T07:55:19.474Z,24.07
2019-04-26T07:56:11.361Z,20.00
2019-04-26T07:57:06.612Z,21.40
2019-04-26T07:57:49.239Z,21.30
2019-04-26T07:59:02.774Z,23.27
2019-04-26T07:59:50.222Z,21.93
2019-04-26T08:00:48.820Z,20.75
2019-04-26T08:01:51.757Z,28.92
2019-04-26T08:02:46.361Z,26.33
2019-04-26T08:03:27.026Z,24.10
2019-04-26T08:04:05.302Z,25.45
2019-04-26T08:04:41.990Z,27.32
2019-04-26T08:05:25.641Z,21.90
2019-04-26T08:06:02.947Z,24.70
2019-04-26T08:06:51.293Z,19.32
2019-04-26T08:07:26.974Z,20.70
2019-04-26T08:08:02.209Z,18.37
2019-04-26T08:08:38.884Z,19.45
2019-04-26T08:09:25.077Z,17.70
2019-04-26T08:09:59.723Z,25.92
2019-04-26T08:10:26.241Z,19.98
2019-04-26T08:11:06.243Z,26.52
2019-04-26T08:11:51.091Z,21.75
2019-04-26T08:12:26.191Z,20.23
2019-04-26T08:13:13.469Z,19.65
2019-04-26T08:13:55.955Z,21.62
2019-04-26T08:14:33.931Z,34.80
2019-04-26T08:15:11.679Z,25.23
2019-04-26T08:15:55.483Z,33.13
2019-04-26T08:16:33.246Z,20.90
2019-04-26T08:17:16.628Z,17.32
2019-04-26T08:18:01.781Z,26.85
2019-04-26T08:18:37.795Z,25.70
2019-04-26T08:19:19.632Z,24.90
2019-04-26T08:20:09.261Z,26.37
2019-04-26T08:20:49.596Z,24.40
2019-04-26T08:21:32.052Z,19.90
2019-04-26T08:22:17.963Z,20.65
2019-04-26T08:22:40.818Z,23.02
2019-04-26T08:23:37.268Z,22.70
2019-04-26T08:23:56.425Z,19.42
2019-04-26T08:24:28.601Z,21.95
2019-04-26T08:25:02.102Z,16.82
2019-04-26T08:25:35.988Z,21.02
2019-04-26T08:26:13.286Z,20.50
2019-04-26T08:26:49.805Z,24.65
2019-04-26T08:27:24.905Z,19.20
2019-04-26T08:27:58.505Z,19.60
2019-04-26T08:28:33.478Z,22.15
2019-04-26T08:29:07.080Z,20.72
2019-04-26T08:29:40.853Z,16.95
2019-04-26T08:30:17.780Z,23.55
2019-04-26T08:30:50.616Z,22.73
2019-04-26T08:31:25.599Z,17.73
2019-04-26T08:31:59.161Z,23.92
2019-04-26T08:32:36.024Z,18.60
2019-04-26T08:33:12.793Z,15.25
2019-04-26T08:33:48.754Z,15.98
2019-04-26T08:34:28.833Z,15.58
2019-04-26T08:35:02.403Z,19.85
2019-04-26T08:35:35.837Z,19.75
2019-04-26T08:36:10.491Z,22.90
2019-04-26T08:36:57.243Z,19.32
2019-04-26T08:37:36.613Z,19.65
2019-04-26T08:38:15.959Z,16.95
2019-04-26T08:38:43.828Z,29.77
2019-04-26T08:39:24.502Z,18.92
2019-04-26T08:39:57.051Z,24.07
2019-04-26T08:40:31.468Z,21.70
2019-04-26T08:41:07.119Z,22.90
2019-04-26T08:41:42.055Z,18.57
2019-04-26T08:42:20.841Z,15.72
2019-04-26T08:43:04.255Z,27.75
2019-04-26T08:43:55.917Z,25.15
2019-04-26T08:44:51.020Z,20.95
2019-04-26T08:45:34.166Z,22.93
2019-04-26T08:46:21.089Z,28.47
2019-04-26T08:47:14.238Z,24.18
2019-04-26T08:48:52.641Z,20.60
2019-04-26T08:49:40.059Z,22.48
2019-04-26T08:50:17.786Z,15.95
2019-04-26T08:50:52.648Z,18.65
2019-04-26T08:51:26.180Z,20.10
2019-04-26T08:51:59.596Z,19.10
2019-04-26T08:52:34.042Z,21.77
2019-04-26T08:53:07.563Z,21.30
2019-04-26T08:53:40.975Z,22.00
2019-04-26T08:54:18.594Z,18.87
2019-04-26T08:54:53.640Z,21.93
2019-04-26T08:55:27.129Z,25.23
2019-04-26T08:56:00.548Z,16.32
2019-04-26T08:56:36.089Z,27.77
2019-04-26T08:57:09.589Z,22.98
2019-04-26T08:57:43.002Z,22.80
2019-04-26T08:58:17.420Z,18.07
2019-04-26T08:58:51.443Z,25.90
2019-04-26T08:59:26.801Z,24.47
2019-04-26T09:00:00.487Z,18.57
2019-04-26T09:00:44.117Z,18.05
2019-04-26T09:01:23.059Z,19.10
2019-04-26T09:02:09.609Z,22.48
2019-04-26T09:02:50.551Z,15.65
2019-04-26T09:04:07.603Z,23.30
2019-04-26T09:04:43.494Z,22.58
2019-04-26T09:05:36.658Z,23.45
2019-04-26T09:06:20.427Z,23.30
2019-04-26T09:07:04.326Z,18.40
2019-04-26T09:07:38.739Z,16.60
2019-04-26T09:08:12.178Z,21.05
2019-04-26T09:08:45.596Z,24.82
2019-04-26T09:09:22.606Z,23.30
2019-04-26T09:09:57.384Z,21.02
2019-04-26T09:10:31.647Z,19.10
2019-04-26T09:11:08.438Z,20.05
2019-04-26T09:11:42.365Z,26.27
2019-04-26T09:12:23.411Z,27.73
2019-04-26T09:12:54.239Z,19.98
2019-04-26T09:13:29.696Z,20.02